Latest Weather Observations for Rabbit Flat

IDD60801

Issued at 9:31 am CST Thursday 29 January 2015 (issued every 30 minutes, with the page automatically refreshed every 10 minutes)

About weather observations | Map of weather stations | Latest weather observations for NT | Other Formats
Station Details ID: 015666 Name: RABBIT FLAT Lat: -20.18 Lon: 130.01 Height: 340.0 m
Data from the previous 72 hours. | See also: Recent months at Rabbit Flat
Date/Time
CST
Temp
°C
App
Temp
°C
Dew
Point
Rel
Hum
%
Delta-T
°C
Wind Press
QNH
hPa
Press
MSL
hPa
Rain
since 9 am
mm
Dir
 
Spd
km/h
Gust
km/h
Spd
kts
Gust
kts
29/09:30am 30.5 25.9 5.7 21 13.3 ENE 19 30 10 16 1010.2 - 0.0
29/09:00am 29.4 24.4 4.6 20 13.0 E 20 30 11 16 1009.9 1007.0 0.0
29/08:30am 28.7 23.4 5.2 22 12.4 E 22 32 12 17 1009.8 - 0.0
29/08:00am 28.1 24.5 8.2 28 11.0 E 17 28 9 15 1009.4 - 0.0
29/07:30am 26.7 24.4 10.4 36 9.3 E 13 20 7 11 1009.3 - 0.0
29/07:00am 25.1 25.6 14.9 53 6.2 E 6 11 3 6 1008.6 - 0.0
29/06:30am 25.9 25.0 14.9 50 6.7 E 13 20 7 11 1008.2 - 0.0
29/06:00am 25.1 26.3 19.1 69 3.9 SE 11 15 6 8 1007.8 1005.0 0.0
29/05:30am 25.4 29.2 20.1 72 3.5 CALM 0 6 0 3 1007.4 - 0.0
29/05:00am 26.2 29.2 19.3 65 4.5 NW 2 9 1 5 1007.3 - 0.0
29/04:30am 26.7 28.0 18.5 60 5.3 NNW 9 11 5 6 1007.4 - 0.0
29/04:00am 27.1 28.1 17.7 56 6.0 NE 9 13 5 7 1007.0 - 0.0
29/03:30am 27.0 29.2 17.4 55 6.1 NE 2 11 1 6 1007.0 - 0.0
29/03:00am 27.7 28.1 16.4 50 7.1 ENE 9 15 5 8 1007.0 1004.1 0.0
29/02:30am 28.3 28.0 15.4 45 8.0 E 11 17 6 9 1007.2 - 0.0
29/02:00am 27.1 31.2 20.8 68 4.2 CALM 0 0 0 0 1006.9 - 0.0
29/01:30am 27.4 31.1 20.0 64 4.9 CALM 0 0 0 0 1007.3 - 0.0
29/01:00am 28.3 31.0 17.7 52 6.8 CALM 0 9 0 5 1007.7 - 0.0
29/12:30am 28.0 32.1 20.7 64 4.9 CALM 0 0 0 0 1007.9 - 0.0
29/12:00am 28.6 31.0 17.9 52 6.9 ENE 2 11 1 6 1008.1 1005.3 0.0
 
Date/Time
CST
Temp
°C
App
Temp
°C
Dew
Point
Rel
Hum
%
Delta-T
°C
Wind Press
QNH
hPa
Press
MSL
hPa
Rain
since 9 am
mm
Dir
 
Spd
km/h
Gust
km/h
Spd
kts
Gust
kts
28/11:30pm 28.6 30.0 18.6 54 6.5 S 9 17 5 9 1008.1 - 0.0
28/11:00pm 28.5 33.0 21.6 66 4.7 CALM 0 0 0 0 1007.9 - 0.0
28/10:30pm 28.6 32.8 21.0 63 5.1 CALM 0 0 0 0 1007.7 - 0.0
28/10:00pm 28.9 32.3 19.3 56 6.3 CALM 0 0 0 0 1007.4 - 0.0
28/09:30pm 29.1 32.4 19.1 54 6.6 CALM 0 0 0 0 1007.2 - 0.0
28/09:00pm 29.6 31.8 18.4 51 7.3 N 4 11 2 6 1007.0 1004.1 0.0
28/08:30pm 30.5 32.9 17.1 44 8.6 CALM 0 0 0 0 1006.6 - 0.0
28/08:00pm 30.7 33.3 17.4 45 8.6 CALM 0 7 0 4 1006.1 - 0.0
28/07:30pm 31.4 33.8 16.9 41 9.3 CALM 0 2 0 1 1005.6 - 0.0
28/07:00pm 32.5 34.2 15.2 35 10.9 CALM 0 9 0 5 1005.5 - 0.0
28/06:30pm 34.2 32.7 11.8 25 13.5 NE 11 15 6 8 1005.2 - 0.0
28/06:00pm 34.9 33.4 11.9 24 13.9 E 11 24 6 13 1005.0 1002.2 0.0
28/05:30pm 35.3 34.2 11.8 24 14.2 ENE 9 17 5 9 1004.8 - 0.0
28/05:00pm 35.4 34.2 11.5 23 14.4 NNE 9 17 5 9 1004.7 - 0.0
28/04:30pm 35.2 33.6 10.1 21 14.8 E 9 19 5 10 1005.0 - 0.0
28/04:00pm 35.8 33.9 11.9 23 14.5 N 13 20 7 11 1005.4 - 0.0
28/03:30pm 36.0 34.5 10.7 21 15.1 W 9 15 5 8 1005.7 - 0.0
28/03:00pm 35.6 33.6 10.0 21 15.1 SE 11 19 6 10 1006.0 1003.2 0.0
28/02:30pm 34.8 32.8 10.2 22 14.5 ENE 11 20 6 11 1006.2 - 0.0
28/02:00pm 34.4 32.2 10.8 23 14.0 E 13 20 7 11 1006.8 - 0.0
28/01:30pm 34.0 32.1 10.6 24 13.8 NE 11 20 6 11 1007.5 - 0.0
28/01:00pm 33.9 31.8 9.7 22 14.1 E 11 17 6 9 1007.7 - 0.0
28/12:30pm 33.3 29.9 9.2 22 13.9 ENE 17 26 9 14 1008.0 - 0.0
28/12:00pm 32.8 29.9 9.6 24 13.4 NE 15 28 8 15 1008.4 1005.6 0.0
28/11:30am 32.1 29.5 9.5 24 13.0 E 13 20 7 11 1008.7 - 0.0
28/11:00am 32.0 28.7 9.6 25 12.9 NE 17 24 9 13 1009.0 - 0.0
28/10:30am 31.1 28.0 8.9 25 12.6 ENE 15 26 8 14 1009.3 - 0.0
28/10:00am 30.0 25.7 7.8 25 12.3 E 20 32 11 17 1009.5 - 0.0
28/09:30am 30.0 29.0 13.3 36 10.1 E 11 17 6 9 1009.4 - 0.0
28/09:00am 27.5 28.9 17.8 55 6.2 SE 7 11 4 6 1009.7 1006.8 2.4
28/08:30am 26.4 29.2 21.5 74 3.3 SSE 9 13 5 7 1009.7 - 2.4
28/08:00am 25.8 28.4 21.2 76 3.1 S 9 15 5 8 1009.4 - 2.4
28/07:30am 24.9 29.2 23.7 93 0.8 S 7 9 4 5 1009.3 - 2.4
28/07:00am 24.8 30.6 23.9 95 0.6 CALM 0 0 0 0 1009.3 - 2.4
28/06:30am 24.8 30.7 24.1 96 0.5 CALM 0 0 0 0 1008.7 - 2.4
28/06:00am 24.7 30.5 24.0 96 0.5 CALM 0 0 0 0 1008.3 1005.5 2.4
28/05:30am 24.6 30.3 23.7 95 0.6 CALM 0 0 0 0 1008.1 - 2.4
28/05:00am 24.7 29.2 23.7 94 0.7 S 6 11 3 6 1008.1 - 2.4
28/04:30am 24.7 29.1 23.5 93 0.8 SSW 6 7 3 4 1007.6 - 2.4
28/04:00am 24.7 29.3 23.8 95 0.6 SSW 6 7 3 4 1007.7 - 2.4
28/03:30am 24.6 28.9 23.6 94 0.7 SW 7 9 4 5 1007.6 - 2.4
28/03:00am 24.6 28.9 23.6 94 0.7 WSW 7 9 4 5 1007.7 1004.9 2.4
28/02:30am 24.5 28.4 23.6 95 0.6 WSW 9 11 5 6 1007.8 - 2.4
28/02:00am 24.7 29.7 23.8 95 0.6 S 4 9 2 5 1008.3 - 2.4
28/01:30am 24.7 28.7 23.7 94 0.7 S 9 11 5 6 1008.5 - 2.4
28/01:00am 24.6 29.1 23.7 95 0.6 WSW 6 9 3 5 1008.5 - 2.4
28/12:30am 24.7 29.2 23.7 94 0.7 SW 6 7 3 4 1008.7 - 2.4
28/12:00am 24.8 30.5 23.8 94 0.7 CALM 0 6 0 3 1009.0 1006.2 2.4
 
Date/Time
CST
Temp
°C
App
Temp
°C
Dew
Point
Rel
Hum
%
Delta-T
°C
Wind Press
QNH
hPa
Press
MSL
hPa
Rain
since 9 am
mm
Dir
 
Spd
km/h
Gust
km/h
Spd
kts
Gust
kts
27/11:30pm 24.8 30.5 23.8 94 0.7 CALM 0 0 0 0 1009.3 - 2.4
27/11:00pm 24.7 30.4 23.7 94 0.7 CALM 0 7 0 4 1009.4 - 2.4
27/10:30pm 24.6 28.8 23.4 93 0.8 W 7 11 4 6 1009.1 - 2.4
27/10:00pm 24.9 30.6 23.7 93 0.8 CALM 0 9 0 5 1009.0 - 2.4
27/09:30pm 24.7 30.3 23.5 93 0.8 CALM 0 0 0 0 1008.9 - 2.4
27/09:00pm 24.6 30.2 23.6 94 0.7 CALM 0 0 0 0 1008.9 1006.1 2.4
27/08:30pm 24.5 29.5 23.2 92 0.9 W 2 7 1 4 1009.0 - 2.4
27/08:00pm 24.3 28.9 23.1 93 0.8 WSW 4 9 2 5 1008.9 - 2.4
27/07:30pm 24.2 28.1 22.9 92 0.9 N 7 13 4 7 1008.6 - 2.4
27/07:00pm 24.5 27.5 23.3 93 0.8 N 13 20 7 11 1008.6 - 2.4
27/06:30pm 24.6 27.6 23.3 92 0.9 N 13 19 7 10 1008.2 - 2.4
27/06:00pm 24.7 28.1 23.4 92 0.9 W 11 20 6 11 1007.3 1004.5 1.8
27/05:30pm 24.9 26.2 22.7 87 1.5 SW 20 28 11 15 1006.6 - 0.0
27/05:00pm 26.6 27.5 21.9 75 3.2 SSW 20 28 11 15 1006.2 - 0.0
27/04:30pm 28.3 26.9 20.4 62 5.3 WSW 28 41 15 22 1006.3 - 0.0
27/04:24pm 28.5 27.3 20.8 63 5.2 WSW 28 41 15 22 1006.2 - 0.0
27/04:00pm 33.1 34.3 18.2 41 9.8 ENE 9 17 5 9 1005.8 - 0.0
27/03:30pm 34.4 35.0 18.6 39 10.5 NNE 13 22 7 12 1005.5 - 0.0
27/03:00pm 34.2 35.1 18.3 39 10.5 NE 11 19 6 10 1006.0 1003.2 0.0
27/02:30pm 34.0 35.3 19.2 41 9.9 E 11 24 6 13 1006.4 - 0.0
27/02:00pm 34.3 35.3 19.5 41 9.9 NE 13 20 7 11 1007.3 - 0.0
27/01:30pm 33.3 34.8 19.7 44 9.1 E 11 24 6 13 1008.2 - 0.0
27/01:00pm 32.4 33.4 19.5 46 8.6 ENE 13 24 7 13 1008.9 - 0.0
27/12:30pm 32.6 33.6 20.3 48 8.3 ENE 15 24 8 13 1009.4 - 0.0
27/12:00pm 31.6 32.3 19.6 49 8.0 NE 15 24 8 13 1009.9 1007.0 0.0
27/11:30am 32.5 33.8 20.2 48 8.3 E 13 30 7 16 1010.2 - 0.0
27/11:00am 30.7 31.0 19.7 52 7.3 E 17 24 9 13 1010.5 - 0.0
27/10:30am 29.1 30.3 20.6 60 5.7 E 15 22 8 12 1010.8 - 0.0
27/10:00am 27.8 28.7 20.1 63 5.1 ESE 15 24 8 13 1011.1 - 0.0
27/09:30am 27.3 28.4 20.5 66 4.5 SE 15 26 8 14 1011.2 - 0.0
27/09:00am 26.8 27.7 20.8 69 4.0 SSE 17 22 9 12 1011.5 1008.7 0.0
27/08:30am 25.9 26.8 20.8 73 3.4 S 17 24 9 13 1011.6 - 0.0
27/08:00am 25.0 25.2 20.6 76 2.9 S 20 30 11 16 1011.1 - 0.0
27/07:30am 24.8 25.4 21.1 80 2.5 S 19 26 10 14 1011.0 - 0.0
27/07:00am 23.9 25.7 21.2 85 1.8 S 13 17 7 9 1010.7 - 0.0
27/06:30am 23.6 25.3 21.0 85 1.7 SSW 13 17 7 9 1010.5 - 0.0
27/06:00am 23.5 25.2 20.9 85 1.7 SSW 13 19 7 10 1010.0 1007.2 0.0
27/05:30am 23.7 24.2 20.8 84 1.9 S 19 26 10 14 1009.4 - 0.0
27/05:00am 23.8 23.4 20.9 84 1.9 S 24 33 13 18 1009.1 - 0.0
27/04:30am 24.2 22.8 20.4 79 2.5 SSW 28 41 15 22 1008.8 - 0.0
27/04:21am 24.6 23.0 20.0 75 3.0 SSW 28 46 15 25 1008.6 - 0.0
27/04:00am 25.6 26.6 21.0 75 3.1 SSW 17 24 9 13 1008.5 - 0.0
27/03:30am 26.1 26.8 21.5 76 3.1 WSW 20 30 11 16 1008.1 - 0.0
27/03:00am 26.1 31.7 23.6 86 1.7 CALM 0 0 0 0 1007.9 1005.1 0.0
27/02:30am 26.6 32.3 23.7 84 2.0 CALM 0 0 0 0 1007.9 - 0.0
27/02:00am 26.9 32.7 24.0 84 2.0 CALM 0 0 0 0 1008.1 - 0.0
27/01:30am 27.0 32.1 24.1 84 2.0 SW 4 6 2 3 1008.3 - 0.0
27/01:00am 27.0 31.4 23.8 82 2.2 WSW 7 9 4 5 1008.9 - 0.0
27/12:30am 27.3 31.7 23.4 79 2.7 NW 6 7 3 4 1009.1 - 0.0
27/12:00am 27.7 32.1 22.8 74 3.4 SSE 4 7 2 4 1009.5 1006.7 0.0
 
Date/Time
CST
Temp
°C
App
Temp
°C
Dew
Point
Rel
Hum
%
Delta-T
°C
Wind Press
QNH
hPa
Press
MSL
hPa
Rain
since 9 am
mm
Dir
 
Spd
km/h
Gust
km/h
Spd
kts
Gust
kts
26/11:30pm 28.1 31.7 22.4 71 3.9 E 7 11 4 6 1009.5 - 0.0
26/11:00pm 28.0 31.1 22.1 70 4.0 ESE 9 13 5 7 1009.2 - 0.0
26/10:30pm 27.7 30.9 22.3 72 3.7 E 9 13 5 7 1008.9 - 0.0
26/10:00pm 27.7 31.4 22.6 74 3.5 SE 7 9 4 5 1008.7 - 0.0
26/09:30pm 28.5 32.2 22.2 68 4.3 S 6 7 3 4 1008.5 - 0.0
26/09:00pm 29.0 32.0 22.0 66 4.8 N 9 11 5 6 1008.4 1005.6 0.0
26/08:30pm 29.4 32.5 21.4 62 5.4 WNW 7 9 4 5 1008.2 - 0.0
26/08:00pm 29.7 33.1 22.0 63 5.3 WNW 7 7 4 4 1007.8 - 0.0
26/07:30pm 31.1 33.7 20.4 53 7.2 WNW 7 9 4 5 1007.1 - 0.0
26/07:00pm 32.3 34.2 19.7 47 8.4 NW 9 13 5 7 1006.7 - 0.0
26/06:30pm 33.0 34.7 20.1 46 8.7 NNW 11 15 6 8 1006.4 - 0.0
26/06:00pm 33.5 35.4 19.8 44 9.2 NE 9 20 5 11 1006.6 1003.7 0.0
26/05:30pm 34.0 36.2 19.5 42 9.7 N 7 11 4 6 1006.6 - 0.0
26/05:00pm 35.1 37.9 19.7 40 10.4 WSW 4 11 2 6 1006.7 - 0.0
26/04:30pm 34.0 36.0 19.9 43 9.5 N 9 17 5 9 1007.2 - 0.0
26/04:00pm 33.1 34.6 19.8 45 8.9 NW 11 20 6 11 1007.7 - 0.0
26/03:30pm 33.1 34.1 19.5 44 9.1 NNE 13 24 7 13 1008.2 - 0.0
26/03:00pm 33.4 34.8 18.6 41 9.8 N 9 19 5 10 1008.5 1005.7 0.0
26/02:30pm 32.6 33.7 17.9 41 9.6 E 9 17 5 9 1008.8 - 0.0
26/02:00pm 32.4 33.5 18.0 42 9.4 ENE 9 15 5 8 1009.1 - 0.0
26/01:30pm 32.2 33.0 17.4 41 9.6 ENE 9 17 5 9 1009.7 - 0.0
26/01:00pm 32.6 32.6 17.3 40 9.9 ENE 13 19 7 10 1010.0 - 0.0
26/12:30pm 32.0 33.1 18.8 45 8.7 E 11 20 6 11 1010.5 - 0.0
26/12:00pm 31.0 31.0 18.1 46 8.4 E 15 22 8 12 1010.9 1008.1 0.0
26/11:30am 30.7 31.7 19.4 51 7.5 E 13 19 7 10 1011.1 - 0.0
26/11:00am 30.1 29.4 18.3 49 7.7 E 19 30 10 16 1011.4 - 0.0
26/10:30am 29.7 30.5 19.8 55 6.6 E 15 24 8 13 1011.4 - 0.0
26/10:00am 28.5 30.8 20.6 62 5.3 E 9 15 5 8 1011.6 - 0.0

Other Formats:

Comma delimited format used in spreadsheet applications
http://www.bom.gov.au/fwo/IDD60801/IDD60801.95322.axf

JavaScript Object Notation format (JSON) in row-major order
http://www.bom.gov.au/fwo/IDD60801/IDD60801.95322.json